EKRA weather

Rarup Airport
Rarup, Central Jutland, Denmark

Public forecast

Using degrees Celsius for public forecast. Weather courtesy of forecast.io.

Closest aviation weather report (METAR) to Rarup Airport

Closest report is Odense Airport, 22.5 nm (41.6 km) SE. Retrieved 2019/10/14 13:50 UTC (19 minutes ago):

EKOD 141350Z 28001KT 9999 FEW023 BKN160 14/10 Q1015

Closest aviation forecast (TAF) to Rarup Airport

Closest forecast is Billund Airport, 26.7 nm (49.4 km) W. Retrieved 2019/10/14 12:30 UTC (2 hours ago):

TAF EKBI 141059Z 1412/1512 VRB02KT 9999 BKN025 TEMPO 1418/1501 RA BKN010 BKN050CB BECMG 1421/1423 11015KT BECMG 1501/1503 3000 BR BKN006 TEMPO 1503/1512 6000 NSW BKN020